Currently 71°F in Riverside (Presidential Park), California, USA
71°F
97°F / 64°F
calm
0.00"
Tuesday, June 27, 2017 11:59 PM PDT

Riverside (Presidential Park), California Weather Summary
Last 36 Hours

Temperature Winds Hourly Humidity Dewpoint
Time Report Norm Report Norm Max Gusts Precip. Rpt. Norm Rpt. Norm Pressure
1Tue 11:59 PM  70.8°F  71°F  calm  2 mph  2 mph  0.00"  48%  63%  49°F  57°F  29.87"
Tue 11:00 PM  74.2°F  72°F  calm  2 mph  8 mph  0.00"  41%  60%  48°F  57°F  29.87"
Tue 10:00 PM  76.2°F  74°F  2 mph W  3 mph  7 mph  0.00"  37%  56%  47°F  57°F  29.87"
Tue 09:00 PM  78.5°F  77°F  2 mph W  4 mph  10 mph  0.00"  33%  50%  46°F  56°F  29.84"
Tue 08:00 PM  82.3°F  80°F  6 mph W  5 mph  12 mph  0.00"  27%  44%  44°F  55°F  29.83"
Tue 07:00 PM  86.8°F  83°F  5 mph W  7 mph  17 mph  0.00"  23%  38%  44°F  54°F  29.82"
Tue 06:00 PM  91.5°F  85°F  7 mph SW  8 mph  18 mph  0.00"  13%  35%  33°F  54°F  29.81"
Tue 05:00 PM  94.3°F  87°F  8 mph W  9 mph  19 mph  0.00"  13%  32%  33°F  53°F  29.82"
Tue 04:00 PM  96.0°F  89°F  7 mph W  8 mph  22 mph  0.00"  6%  31%  17°F  53°F  29.83"
2Tue 03:40 PM  96.6°F  89°F  9 mph SW  8 mph  17 mph  ----  7%  31%  21°F  53°F  29.83"
Tue 03:00 PM  95.9°F  90°F  9 mph W  8 mph  16 mph  0.00"  7%  30%  18°F  53°F  29.84"
Tue 02:00 PM  95.6°F  89°F  7 mph SW  7 mph  13 mph  0.00"  9%  32%  25°F  54°F  29.85"
Tue 01:00 PM  94.3°F  88°F  5 mph W  6 mph  11 mph  0.00"  12%  34%  31°F  55°F  29.87"
Tue 12:00 PM  91.8°F  85°F  4 mph W  4 mph  11 mph  0.00"  13%  39%  33°F  56°F  29.88"
Tue 11:00 AM  89.5°F  81°F  1 mph W  3 mph  9 mph  0.00"  17%  45%  37°F  57°F  29.89"
Tue 10:00 AM  85.8°F  77°F  calm  2 mph  6 mph  0.00"  22%  54%  42°F  59°F  29.89"
Tue 09:00 AM  80.8°F  73°F  calm  2 mph  4 mph  0.00"  31%  63%  46°F  59°F  29.90"
Tue 08:00 AM  74.4°F  69°F  2 mph W  1 mph  none  0.00"  40%  70%  48°F  59°F  29.90"
Tue 07:00 AM  66.4°F  66°F  calm  1 mph  3 mph  0.00"  47%  76%  45°F  58°F  29.90"
3Tue 06:08 AM  64.2°F  64°F  1 mph SE  1 mph  3 mph  ----  50%  77%  44°F  57°F  29.89"
Tue 06:00 AM  64.8°F  64°F  calm  1 mph  3 mph  0.00"  50%  77%  45°F  57°F  29.89"
Tue 05:00 AM  65.7°F  65°F  2 mph SE  1 mph  3 mph  0.00"  47%  76%  44°F  57°F  29.89"
Tue 04:00 AM  67.0°F  66°F  1 mph SE  1 mph  3 mph  0.00"  46%  74%  45°F  57°F  29.89"
Tue 03:00 AM  68.5°F  67°F  calm  1 mph  none  0.00"  45%  72%  46°F  57°F  29.88"
Tue 02:00 AM  70.2°F  68°F  calm  1 mph  none  0.00"  40%  69%  44°F  57°F  29.88"
Tue 01:00 AM  72.3°F  69°F  calm  1 mph  4 mph  0.00"  37%  66%  43°F  57°F  29.89"
Tue 12:00 AM  75.2°F  71°F  calm  2 mph  4 mph  0.00"  33%  63%  43°F  57°F  29.91"
Mon 11:00 PM  80.8°F  72°F  3 mph SE  2 mph  6 mph  0.00"  25%  60%  41°F  57°F  29.92"
Mon 10:00 PM  84.3°F  74°F  2 mph W  3 mph  6 mph  0.00"  18%  56%  35°F  57°F  29.91"
Mon 09:00 PM  86.3°F  76°F  1 mph W  4 mph  11 mph  0.00"  20%  50%  38°F  56°F  29.91"
Mon 08:00 PM  88.5°F  80°F  5 mph SW  5 mph  13 mph  0.00"  17%  44%  37°F  55°F  29.90"
Mon 07:00 PM  91.7°F  83°F  7 mph W  7 mph  15 mph  0.00"  14%  38%  35°F  54°F  29.89"
Mon 06:00 PM  95.0°F  85°F  5 mph W  8 mph  16 mph  0.00"  8%  35%  23°F  53°F  29.89"
Mon 05:00 PM  97.0°F  87°F  6 mph W  9 mph  19 mph  0.00"  7%  32%  20°F  53°F  29.90"
Mon 04:00 PM  99.2°F  89°F  10 mph W  8 mph  21 mph  0.00"  7%  30%  21°F  53°F  29.90"
Mon 03:00 PM  101.2°F  89°F  8 mph W  8 mph  18 mph  0.00"  6%  30%  19°F  53°F  29.91"
Mon 02:00 PM  101.1°F  89°F  6 mph SW  7 mph  19 mph  0.00"  6%  31%  20°F  54°F  29.91"
Mon 01:00 PM  101.0°F  88°F  7 mph W  5 mph  20 mph  0.00"  6%  34%  21°F  55°F  29.91"
Mon 12:00 PM  99.2°F  85°F  6 mph W  4 mph  12 mph  0.00"  9%  39%  29°F  56°F  29.92"

  1. Current weather data. No green row appears if the current weather data is also the high or low for the current day.
  2. High temperature for the current day.
  3. Low temperature for the current day.

The Riverside (Presidential Park), California weather pages are a service of WeatherCurrents.
Copyright ©Tue Jun 27 23:59:59 PDT 2017  WeatherCurrents. All rights reserved. - Submit questions and comments - Privacy Policy

This page automatically refreshes every 10 minutes.